Terminal Aerodrome Forecast
Issued by NWS

Home | Current Version | Previous Version | Text Only | Print | Product List | Glossary On
Versions: 1 2 3 4 5 6 7 8 9 10 11 12 13 14 15 16 17 18 19 20 21 22 23 24
752
FTUS46 KMTR 181142
TAFSFO
TAF
KSFO 181142Z 1812/1918 03006KT P6SM BKN120 OVC150
     FM181500 15010KT P6SM BKN060 OVC100
     FM181800 17018KT 6SM -RA BR OVC050
     FM182200 16020G30KT 3SM RA BR OVC025
     FM190000 24015G25KT 5SM RA BR OVC015
     FM190600 23015KT P6SM -SHRA OVC012
     FM191200 18010KT P6SM -SHRA OVC020=

USA.gov is the U.S. government's official web portal to all federal, state and local government web resources and services.